createdAt,value
2022-12-08T00:00:15.398Z,3.299
2022-12-08T00:01:13.890Z,3.599
2022-12-08T00:02:13.827Z,3.400
2022-12-08T00:03:13.659Z,3.799
2022-12-08T00:04:13.811Z,3.400
2022-12-08T00:06:13.137Z,3.5
2022-12-08T00:07:13.084Z,3.299
2022-12-08T00:08:13.898Z,3.700
2022-12-08T00:10:47.839Z,3.599
2022-12-08T00:11:13.501Z,3.099
2022-12-08T00:12:13.611Z,3.5
2022-12-08T00:13:13.608Z,3.299
2022-12-08T00:14:12.972Z,3.400
2022-12-08T00:15:12.877Z,3.099
2022-12-08T00:17:13.500Z,3.200
2022-12-08T00:18:13.231Z,3.099
2022-12-08T00:19:13.357Z,3.200
2022-12-08T00:20:13.430Z,3.099
2022-12-08T00:21:13.559Z,3
2022-12-08T00:22:13.911Z,3.099
2022-12-08T00:24:13.954Z,3.299
2022-12-08T00:25:13.972Z,3.099
2022-12-08T00:26:13.543Z,3.5
2022-12-08T00:27:13.676Z,3.099
2022-12-08T00:28:13.095Z,3.299
2022-12-08T00:29:17.303Z,3.200
2022-12-08T00:31:13.381Z,3.400
2022-12-08T00:32:13.201Z,3
2022-12-08T00:33:12.978Z,3.400
2022-12-08T00:35:13.144Z,3.299
2022-12-08T00:37:13.426Z,3.5
2022-12-08T00:38:13.751Z,3.200
2022-12-08T00:39:13.755Z,3.099
2022-12-08T00:41:14.084Z,3.299
2022-12-08T00:42:14.062Z,3.599
2022-12-08T00:43:13.237Z,3.400
2022-12-08T00:44:13.725Z,3.5
2022-12-08T00:45:14.404Z,3.400
2022-12-08T00:47:13.949Z,3.299
2022-12-08T00:48:13.464Z,3.400
2022-12-08T00:50:14.419Z,3.299
2022-12-08T00:51:13.579Z,3.5
2022-12-08T00:53:12.970Z,3.299
2022-12-08T00:54:13.961Z,3.099
2022-12-08T00:55:13.685Z,3.400
2022-12-08T00:56:13.801Z,3.200
2022-12-08T00:57:13.505Z,3.400
2022-12-08T00:58:13.531Z,3.599
2022-12-08T00:59:13.384Z,3.400
2022-12-08T01:01:16.097Z,3.200
2022-12-08T01:02:13.911Z,3.700
2022-12-08T01:03:14.400Z,3.299
2022-12-08T01:04:13.861Z,3.5
2022-12-08T01:05:14.304Z,3.900
2022-12-08T01:06:13.153Z,3.700
2022-12-08T01:07:13.187Z,3.400
2022-12-08T01:08:13.824Z,3.900
2022-12-08T01:09:14.058Z,4.099
2022-12-08T01:10:14.712Z,3.400
2022-12-08T01:12:13.908Z,3.5
2022-12-08T01:13:13.979Z,3.400
2022-12-08T01:14:13.682Z,3.700
2022-12-08T01:15:14.185Z,3.400
2022-12-08T01:16:14.073Z,3.799
2022-12-08T01:17:13.172Z,3.400
2022-12-08T01:18:14.611Z,3.5
2022-12-08T01:19:14.040Z,3.599
2022-12-08T01:21:14.038Z,3.200
2022-12-08T01:22:13.926Z,3.5
2022-12-08T01:23:14.116Z,3.599
2022-12-08T01:25:14.168Z,3.799
2022-12-08T01:26:13.790Z,3.400
2022-12-08T01:27:13.669Z,3.5
2022-12-08T01:28:13.798Z,4
2022-12-08T01:29:14.091Z,3.799
2022-12-08T01:30:13.671Z,3.299
2022-12-08T01:31:13.247Z,3.400
2022-12-08T01:32:13.811Z,3.200
2022-12-08T01:33:14.188Z,3.5
2022-12-08T01:34:13.316Z,3.400
2022-12-08T01:35:12.810Z,3.200
2022-12-08T01:36:13.568Z,3.5
2022-12-08T01:39:13.614Z,3.200
2022-12-08T01:40:13.300Z,3.599
2022-12-08T01:41:13.400Z,3.099
2022-12-08T01:42:12.721Z,3.400
2022-12-08T01:43:13.327Z,3.299
2022-12-08T01:44:12.831Z,3.5
2022-12-08T01:47:13.525Z,3.099
2022-12-08T01:48:13.343Z,3.200
2022-12-08T01:49:12.940Z,3.099
2022-12-08T01:51:13.642Z,3.5
2022-12-08T01:52:13.018Z,3.200
2022-12-08T01:54:13.380Z,3.400
2022-12-08T01:55:13.282Z,3.200
2022-12-08T01:57:12.411Z,3.299
2022-12-08T01:58:13.286Z,3.200
2022-12-08T01:59:13.240Z,3
2022-12-08T02:00:14.488Z,3.099
2022-12-08T02:04:14.152Z,3.200
2022-12-08T02:06:14.227Z,3.299
2022-12-08T02:07:13.634Z,3.200
2022-12-08T02:08:13.867Z,3.099
2022-12-08T02:09:13.723Z,2.799
2022-12-08T02:10:14.725Z,2.700
2022-12-08T02:11:13.160Z,2.900
2022-12-08T02:12:13.472Z,2.799
2022-12-08T02:14:13.027Z,3
2022-12-08T02:15:13.416Z,2.799
2022-12-08T02:16:13.534Z,2.700
2022-12-08T02:17:13.568Z,2.900
2022-12-08T02:18:13.457Z,3
2022-12-08T02:19:30.836Z,2.5
2022-12-08T02:20:13.979Z,3
2022-12-08T02:22:13.924Z,3.099
2022-12-08T02:24:13.661Z,2.799
2022-12-08T02:25:13.933Z,2.700
2022-12-08T02:26:13.966Z,2.599
2022-12-08T02:27:13.244Z,2.700
2022-12-08T02:30:14.120Z,2.900
2022-12-08T02:31:13.417Z,2.5
2022-12-08T02:32:13.683Z,2.700
2022-12-08T02:35:13.551Z,2.799
2022-12-08T02:36:14.098Z,3
2022-12-08T02:37:13.654Z,3.099
2022-12-08T02:38:13.611Z,3.5
2022-12-08T02:39:13.864Z,3
2022-12-08T02:40:13.154Z,3.299
2022-12-08T02:41:13.763Z,2.799
2022-12-08T02:42:14.749Z,2.900
2022-12-08T02:43:14.160Z,2.799
2022-12-08T02:44:13.163Z,3
2022-12-08T02:46:13.221Z,2.799
2022-12-08T02:47:21.900Z,3.299
2022-12-08T02:48:13.366Z,3.200
2022-12-08T02:49:14.156Z,3
2022-12-08T02:50:13.491Z,3.200
2022-12-08T02:51:13.826Z,3.099
2022-12-08T02:54:13.977Z,2.900
2022-12-08T02:55:13.825Z,2.700
2022-12-08T02:56:13.921Z,3.200
2022-12-08T02:57:13.777Z,2.799
2022-12-08T02:58:13.461Z,2.900
2022-12-08T03:01:13.617Z,2.5
2022-12-08T03:02:13.667Z,2.900
2022-12-08T03:03:32.747Z,2.700
2022-12-08T03:04:14.141Z,2.599
2022-12-08T03:05:14.137Z,2.700
2022-12-08T03:06:13.038Z,2.5
2022-12-08T03:07:13.153Z,2.599
2022-12-08T03:09:13.487Z,2.799
2022-12-08T03:10:13.702Z,2.900
2022-12-08T03:11:14.111Z,3.099
2022-12-08T03:12:12.852Z,2.900
2022-12-08T03:13:13.319Z,2.799
2022-12-08T03:14:13.926Z,2.900
2022-12-08T03:15:14.301Z,3.099
2022-12-08T03:16:13.002Z,3.200
2022-12-08T03:17:13.439Z,3.099
2022-12-08T03:19:13.627Z,3
2022-12-08T03:20:13.558Z,2.900
2022-12-08T03:21:13.590Z,3.200
2022-12-08T03:22:13.339Z,3.299
2022-12-08T03:25:13.437Z,3.5
2022-12-08T03:26:13.555Z,3.700
2022-12-08T03:28:14.073Z,3.400
2022-12-08T03:29:13.582Z,3.799
2022-12-08T03:30:14.350Z,3.599
2022-12-08T03:33:13.498Z,3.700
2022-12-08T03:34:13.486Z,3.599
2022-12-08T03:35:13.960Z,3.900
2022-12-08T03:36:13.465Z,4.099
2022-12-08T03:37:12.946Z,3.799
2022-12-08T03:38:13.791Z,4.199
2022-12-08T03:39:12.642Z,4
2022-12-08T03:41:13.102Z,4.199
2022-12-08T03:42:13.388Z,3.900
2022-12-08T03:43:13.567Z,4.599
2022-12-08T03:44:13.547Z,4.300
2022-12-08T03:45:13.682Z,4.199
2022-12-08T03:48:13.118Z,4.099
2022-12-08T03:49:13.051Z,4.300
2022-12-08T03:50:14.157Z,4.099
2022-12-08T03:51:13.299Z,4
2022-12-08T03:52:13.967Z,3.900
2022-12-08T03:54:13.284Z,3.799
2022-12-08T03:55:13.916Z,3.900
2022-12-08T03:56:13.835Z,4.099
2022-12-08T03:57:13.753Z,4
2022-12-08T03:58:13.367Z,3.700
2022-12-08T03:59:12.904Z,4.099
2022-12-08T04:01:14.380Z,3.900
2022-12-08T04:02:13.641Z,4.199
2022-12-08T04:03:14.201Z,4
2022-12-08T04:06:12.691Z,3.799
2022-12-08T04:07:13.472Z,4.300
2022-12-08T04:08:13.140Z,4.099
2022-12-08T04:10:13.766Z,4.300
2022-12-08T04:11:13.200Z,4.599
2022-12-08T04:12:14.476Z,4.199
2022-12-08T04:13:13.622Z,4.699
2022-12-08T04:14:13.313Z,4.300
2022-12-08T04:15:13.878Z,4.599
2022-12-08T04:16:14.222Z,4.5
2022-12-08T04:17:13.065Z,4.400
2022-12-08T04:18:13.067Z,4.199
2022-12-08T04:19:12.962Z,4.300
2022-12-08T04:20:13.471Z,4.599
2022-12-08T04:22:13.298Z,5.199
2022-12-08T04:23:13.742Z,4.400
2022-12-08T04:24:13.569Z,5
2022-12-08T04:27:14.411Z,4.699
2022-12-08T04:29:13.273Z,4.900
2022-12-08T04:30:13.804Z,4.5
2022-12-08T04:31:13.718Z,4.599
2022-12-08T04:32:14.106Z,5.099
2022-12-08T04:33:13.257Z,4.800
2022-12-08T04:34:13.264Z,4.900
2022-12-08T04:35:12.859Z,4.800
2022-12-08T04:36:13.241Z,4.400
2022-12-08T04:37:13.235Z,4.599
2022-12-08T04:38:13.817Z,4.5
2022-12-08T04:40:14.293Z,4.699
2022-12-08T04:41:14.019Z,4.900
2022-12-08T04:42:13.611Z,4.599
2022-12-08T04:43:13.979Z,4.900
2022-12-08T04:44:14.302Z,4.599
2022-12-08T04:45:14.247Z,4.900
2022-12-08T04:46:13.129Z,4.699
2022-12-08T04:47:14.433Z,5
2022-12-08T04:48:13.516Z,4.699
2022-12-08T04:49:13.348Z,5
2022-12-08T04:50:13.356Z,4.699
2022-12-08T04:51:13.655Z,4.800
2022-12-08T04:52:14.087Z,5.099
2022-12-08T04:53:14.313Z,4.900
2022-12-08T04:54:13.981Z,4.800
2022-12-08T04:55:13.263Z,5.300
2022-12-08T04:56:13.313Z,4.5
2022-12-08T04:57:13.920Z,5.300
2022-12-08T04:58:13.236Z,5.099
2022-12-08T04:59:13.436Z,4.900
2022-12-08T05:00:14.762Z,5.400
2022-12-08T05:01:14.111Z,5.300
2022-12-08T05:03:13.681Z,5.199
2022-12-08T05:04:14.026Z,5.599
2022-12-08T05:05:13.528Z,5.400
2022-12-08T05:06:13.917Z,5.699
2022-12-08T05:07:13.719Z,5.800
2022-12-08T05:08:13.276Z,5.400
2022-12-08T05:09:13.940Z,5.699
2022-12-08T05:11:13.696Z,6.099
2022-12-08T05:12:13.820Z,6
2022-12-08T05:13:13.523Z,5.599
2022-12-08T05:14:13.887Z,6.400
2022-12-08T05:15:14.303Z,6.099
2022-12-08T05:16:26.978Z,6.300
2022-12-08T05:18:13.645Z,6.099
2022-12-08T05:20:13.101Z,6.699
2022-12-08T05:21:13.564Z,6.300
2022-12-08T05:23:14.131Z,6.599
2022-12-08T05:24:14.158Z,6.199
2022-12-08T05:25:13.531Z,6.400
2022-12-08T05:26:14.030Z,6.599
2022-12-08T05:27:14.076Z,6.099
2022-12-08T05:30:13.877Z,6.5
2022-12-08T05:32:14.312Z,6.900
2022-12-08T05:33:13.839Z,6.5
2022-12-08T05:35:14.226Z,6.599
2022-12-08T05:36:13.487Z,6.699
2022-12-08T05:37:14.067Z,6.5
2022-12-08T05:38:13.595Z,6.800
2022-12-08T05:39:14.274Z,7.099
2022-12-08T05:40:13.714Z,6.699
2022-12-08T05:41:14.185Z,6.599
2022-12-08T05:43:13.529Z,6.900
2022-12-08T05:44:13.661Z,6.400
2022-12-08T05:47:13.669Z,6.5
2022-12-08T05:48:13.121Z,6.900
2022-12-08T05:49:14.272Z,5.900
2022-12-08T05:50:13.478Z,6.099
2022-12-08T05:52:12.888Z,6
2022-12-08T05:53:13.126Z,6.099
2022-12-08T05:54:14.132Z,5.800
2022-12-08T05:55:13.675Z,6.099
2022-12-08T05:56:13.872Z,5.900
2022-12-08T05:57:13.070Z,5.800
2022-12-08T05:58:13.880Z,6.099
2022-12-08T06:00:15.270Z,5.800
2022-12-08T06:02:14.609Z,5.699
2022-12-08T06:03:14.205Z,6.099
2022-12-08T06:04:13.695Z,5.800
2022-12-08T06:05:14.205Z,6.300
2022-12-08T06:06:13.511Z,5.699
2022-12-08T06:08:13.084Z,5.900
2022-12-08T06:09:13.317Z,5.099
2022-12-08T06:10:13.660Z,5.5
2022-12-08T06:11:13.694Z,5.599
2022-12-08T06:12:13.638Z,5.400
2022-12-08T06:14:13.559Z,5.599
2022-12-08T06:15:13.968Z,5.300
2022-12-08T06:16:13.909Z,5.400
2022-12-08T06:18:13.710Z,5.5
2022-12-08T06:19:13.908Z,5.300
2022-12-08T06:20:13.955Z,5.199
2022-12-08T06:22:13.522Z,5.599
2022-12-08T06:23:14.077Z,5.300
2022-12-08T06:24:12.483Z,5.099
2022-12-08T06:25:13.693Z,5
2022-12-08T06:27:13.443Z,4.900
2022-12-08T06:28:13.175Z,5.5
2022-12-08T06:29:13.660Z,4.800
2022-12-08T06:30:13.643Z,5.300
2022-12-08T06:31:13.544Z,4.699
2022-12-08T06:32:13.487Z,5
2022-12-08T06:33:13.325Z,4.900
2022-12-08T06:34:13.028Z,5
2022-12-08T06:35:13.359Z,4.800
2022-12-08T06:36:13.407Z,5.199
2022-12-08T06:40:13.606Z,5
2022-12-08T06:41:13.046Z,4.900
2022-12-08T06:42:12.984Z,4.599
2022-12-08T06:43:13.532Z,5.400
2022-12-08T06:44:13.174Z,5.300
2022-12-08T06:45:13.712Z,4.800
2022-12-08T06:46:13.859Z,5
2022-12-08T06:47:13.768Z,4.599
2022-12-08T06:48:13.246Z,4.900
2022-12-08T06:49:13.185Z,5.099
2022-12-08T06:50:13.430Z,4.099
2022-12-08T06:51:13.533Z,4.199
2022-12-08T06:52:13.508Z,4.400
2022-12-08T06:53:13.498Z,4.699
2022-12-08T06:55:29.220Z,4.400
2022-12-08T06:56:14.261Z,4.5
2022-12-08T06:57:13.738Z,4.199
2022-12-08T06:58:13.844Z,5
2022-12-08T07:00:14.562Z,4.599
2022-12-08T07:02:13.690Z,4.300
2022-12-08T07:03:13.928Z,4.599
2022-12-08T07:04:12.831Z,4.400
2022-12-08T07:06:13.042Z,4.699
2022-12-08T07:07:13.995Z,4.5
2022-12-08T07:08:13.793Z,4.599
2022-12-08T07:09:13.158Z,4.5
2022-12-08T07:10:13.675Z,4.199
2022-12-08T07:11:19.691Z,4.5
2022-12-08T07:12:13.188Z,4.199
2022-12-08T07:13:14.304Z,4.400
2022-12-08T07:14:13.375Z,4.300
2022-12-08T07:15:13.418Z,4.400
2022-12-08T07:16:13.923Z,4.699
2022-12-08T07:17:12.943Z,4.199
2022-12-08T07:18:13.314Z,4.599
2022-12-08T07:19:13.670Z,4.900
2022-12-08T07:20:14.425Z,4.5
2022-12-08T07:21:19.002Z,4.400
2022-12-08T07:22:13.529Z,4.900
2022-12-08T07:24:14.032Z,5.199
2022-12-08T07:25:13.798Z,4.699
2022-12-08T07:26:13.667Z,4.400
2022-12-08T07:27:18.458Z,4.599
2022-12-08T07:28:13.289Z,4.900
2022-12-08T07:29:13.303Z,5
2022-12-08T07:30:14.382Z,4.400
2022-12-08T07:31:14.484Z,5.099
2022-12-08T07:32:14.159Z,5.5
2022-12-08T07:33:13.694Z,5.800
2022-12-08T07:34:14.390Z,5.400
2022-12-08T07:35:13.494Z,6.400
2022-12-08T07:36:13.433Z,5.599
2022-12-08T07:37:13.888Z,5.699
2022-12-08T07:39:13.690Z,5.099
2022-12-08T07:41:13.819Z,5
2022-12-08T07:42:14.117Z,4.900
2022-12-08T07:43:13.427Z,5.099
2022-12-08T07:44:13.870Z,4.5
2022-12-08T07:45:13.932Z,4.900
2022-12-08T07:46:13.606Z,5
2022-12-08T07:47:14.166Z,4.800
2022-12-08T07:48:13.285Z,4.900
2022-12-08T07:49:13.289Z,5
2022-12-08T07:50:13.849Z,4.900
2022-12-08T07:52:13.708Z,5.300
2022-12-08T07:53:13.899Z,5.5
2022-12-08T07:54:14.098Z,5.199
2022-12-08T07:55:13.445Z,4.699
2022-12-08T07:56:13.913Z,5
2022-12-08T07:57:14.365Z,5.099
2022-12-08T07:58:13.751Z,5.300
2022-12-08T07:59:13.469Z,5
2022-12-08T08:00:14.480Z,5.099
2022-12-08T08:01:14.421Z,4.800
2022-12-08T08:02:24.191Z,5.199
2022-12-08T08:03:13.526Z,4.699
2022-12-08T08:05:14.472Z,4.800
2022-12-08T08:06:13.496Z,5
2022-12-08T08:08:14.189Z,4.800
2022-12-08T08:09:14.346Z,5
2022-12-08T08:10:14.556Z,4.400
2022-12-08T08:11:20.929Z,4.699
2022-12-08T08:12:30.881Z,4.599
2022-12-08T08:13:14.256Z,4
2022-12-08T08:14:13.312Z,4.400
2022-12-08T08:16:14.001Z,4.300
2022-12-08T08:17:13.842Z,4.699
2022-12-08T08:18:13.231Z,4.400
2022-12-08T08:19:13.507Z,4.5
2022-12-08T08:20:14.000Z,4.199
2022-12-08T08:21:43.820Z,4.400
2022-12-08T08:22:13.575Z,4.599
2022-12-08T08:23:13.635Z,4.300
2022-12-08T08:24:13.343Z,4.5
2022-12-08T08:25:13.516Z,4.199
2022-12-08T08:27:13.992Z,4.599
2022-12-08T08:28:13.743Z,4.900
2022-12-08T08:29:13.678Z,4.5
2022-12-08T08:30:18.360Z,4.800
2022-12-08T08:31:13.370Z,4.599
2022-12-08T08:32:13.556Z,5
2022-12-08T08:33:14.252Z,4.699
2022-12-08T08:34:13.439Z,5
2022-12-08T08:35:13.754Z,5.300
2022-12-08T08:36:13.480Z,5.400
2022-12-08T08:37:13.784Z,5.300
2022-12-08T08:38:13.778Z,5.199
2022-12-08T08:39:14.509Z,5
2022-12-08T08:40:14.070Z,4.800
2022-12-08T08:41:14.005Z,5.599
2022-12-08T08:42:13.625Z,5
2022-12-08T08:43:13.708Z,5.400
2022-12-08T08:44:13.778Z,5
2022-12-08T08:45:14.058Z,5.300
2022-12-08T08:46:13.748Z,5.199
2022-12-08T08:47:13.919Z,5
2022-12-08T08:48:13.767Z,5.199
2022-12-08T08:49:13.580Z,5.099
2022-12-08T08:51:13.993Z,4.699
2022-12-08T08:52:13.855Z,5.599
2022-12-08T08:53:13.797Z,4.699
2022-12-08T08:54:13.798Z,4.800
2022-12-08T08:55:13.360Z,5.400
2022-12-08T08:56:13.427Z,5.099
2022-12-08T08:58:13.096Z,5.199
2022-12-08T08:59:14.016Z,4.900
2022-12-08T09:00:13.991Z,5.5
2022-12-08T09:01:13.530Z,5.099
2022-12-08T09:02:14.142Z,5.199
2022-12-08T09:04:13.812Z,5.099
2022-12-08T09:05:13.750Z,4.900
2022-12-08T09:06:13.832Z,5.400
2022-12-08T09:07:14.121Z,5.099
2022-12-08T09:09:13.502Z,4.900
2022-12-08T09:10:14.071Z,5.300
2022-12-08T09:11:13.141Z,5.900
2022-12-08T09:13:14.030Z,5.300
2022-12-08T09:14:13.466Z,5.400
2022-12-08T09:16:13.673Z,5.5
2022-12-08T09:17:14.436Z,5.699
2022-12-08T09:19:13.576Z,5.5
2022-12-08T09:20:14.191Z,5.400
2022-12-08T09:21:13.936Z,5.699
2022-12-08T09:22:13.892Z,5.599
2022-12-08T09:23:13.415Z,5.099
2022-12-08T09:24:13.409Z,5.300
2022-12-08T09:25:13.379Z,5.599
2022-12-08T09:26:13.347Z,4.900
2022-12-08T09:27:13.361Z,5.5
2022-12-08T09:28:13.633Z,5
2022-12-08T09:29:13.857Z,5.300
2022-12-08T09:30:14.825Z,5.199
2022-12-08T09:31:13.932Z,5.099
2022-12-08T09:32:13.295Z,5.5
2022-12-08T09:33:13.821Z,5.099
2022-12-08T09:34:13.395Z,5
2022-12-08T09:35:13.968Z,5.5
2022-12-08T09:36:13.483Z,5.099
2022-12-08T09:37:13.354Z,5.699
2022-12-08T09:39:13.845Z,5.300
2022-12-08T09:40:13.782Z,5.699
2022-12-08T09:42:13.160Z,5.300
2022-12-08T09:43:13.346Z,5.900
2022-12-08T09:44:13.018Z,5.599
2022-12-08T09:45:14.396Z,5.5
2022-12-08T09:46:13.859Z,5.900
2022-12-08T09:47:13.725Z,5.400
2022-12-08T09:48:13.966Z,5.800
2022-12-08T09:50:13.851Z,5.900
2022-12-08T09:51:13.539Z,6
2022-12-08T09:52:19.133Z,6.099
2022-12-08T09:53:14.335Z,5.599
2022-12-08T09:55:13.145Z,5.300
2022-12-08T09:56:13.688Z,5.400
2022-12-08T09:57:13.168Z,5.900
2022-12-08T09:58:13.542Z,5.699
2022-12-08T09:59:13.994Z,5.599
2022-12-08T10:00:20.535Z,5.699
2022-12-08T10:01:13.721Z,5.900
2022-12-08T10:02:13.672Z,6.300
2022-12-08T10:03:16.723Z,5.5
2022-12-08T10:04:13.224Z,5.400
2022-12-08T10:06:27.242Z,5.099
2022-12-08T10:07:12.740Z,5.300
2022-12-08T10:09:18.319Z,5.5
2022-12-08T10:10:28.109Z,6.099
2022-12-08T10:11:13.726Z,6.599
2022-12-08T10:12:13.927Z,8.100
2022-12-08T10:13:14.360Z,7.900
2022-12-08T10:14:13.874Z,8.199
2022-12-08T10:15:13.291Z,6.599
2022-12-08T10:16:17.599Z,5.5
2022-12-08T10:17:13.925Z,5.300
2022-12-08T10:20:13.444Z,4.800
2022-12-08T10:21:14.592Z,5.099
2022-12-08T10:22:15.164Z,5.199
2022-12-08T10:23:14.315Z,4.900
2022-12-08T10:24:13.714Z,5.900
2022-12-08T10:25:13.881Z,5.099
2022-12-08T10:27:13.433Z,5.199
2022-12-08T10:28:13.506Z,4.599
2022-12-08T10:29:14.314Z,5
2022-12-08T10:30:14.529Z,5.099
2022-12-08T10:31:14.441Z,6.800
2022-12-08T10:32:14.360Z,5.699
2022-12-08T10:33:14.748Z,5.300
2022-12-08T10:34:14.102Z,5.599
2022-12-08T10:35:14.633Z,5.199
2022-12-08T10:36:14.528Z,4.5
2022-12-08T10:37:14.331Z,4.699
2022-12-08T10:38:13.889Z,4.300
2022-12-08T10:39:13.688Z,4.199
2022-12-08T10:41:14.251Z,4.5
2022-12-08T10:42:13.731Z,4.400
2022-12-08T10:43:13.894Z,4
2022-12-08T10:44:13.084Z,4.699
2022-12-08T10:45:12.962Z,4.099
2022-12-08T10:47:13.735Z,3.900
2022-12-08T10:48:13.503Z,4.300
2022-12-08T10:49:13.612Z,3.799
2022-12-08T10:50:13.980Z,3.5
2022-12-08T10:51:14.048Z,3.799
2022-12-08T10:52:13.679Z,3.700
2022-12-08T10:53:13.740Z,3.799
2022-12-08T10:54:17.707Z,4.099
2022-12-08T10:55:14.333Z,4.199
2022-12-08T10:56:14.465Z,4
2022-12-08T10:58:13.677Z,3.900
2022-12-08T10:59:13.769Z,3.799
2022-12-08T11:00:15.105Z,3.5
2022-12-08T11:01:13.947Z,3.299
2022-12-08T11:02:14.183Z,3.700
2022-12-08T11:03:13.808Z,3.5
2022-12-08T11:05:13.763Z,3.700
2022-12-08T11:06:13.657Z,3.599
2022-12-08T11:07:13.928Z,3.400
2022-12-08T11:08:13.878Z,3.5
2022-12-08T11:09:14.115Z,3.599
2022-12-08T11:10:13.362Z,3.700
2022-12-08T11:11:13.845Z,3.5
2022-12-08T11:12:14.453Z,3.700
2022-12-08T11:13:14.226Z,3.5
2022-12-08T11:14:14.165Z,3.400
2022-12-08T11:15:14.151Z,3.5
2022-12-08T11:16:13.913Z,3.400
2022-12-08T11:17:14.061Z,3.5
2022-12-08T11:18:13.486Z,3.400
2022-12-08T11:20:13.787Z,3.700
2022-12-08T11:21:13.269Z,4.099
2022-12-08T11:22:13.912Z,3.400
2022-12-08T11:23:13.771Z,4
2022-12-08T11:24:14.488Z,3.5
2022-12-08T11:25:14.046Z,3.599
2022-12-08T11:26:13.660Z,3.700
2022-12-08T11:27:13.399Z,3.400
2022-12-08T11:28:14.486Z,3.099
2022-12-08T11:29:13.852Z,3.200
2022-12-08T11:30:14.786Z,3.299
2022-12-08T11:31:13.172Z,3
2022-12-08T11:32:14.219Z,3.299
2022-12-08T11:34:13.430Z,3
2022-12-08T11:35:14.194Z,3.099
2022-12-08T11:36:13.745Z,3.400
2022-12-08T11:37:13.742Z,3.5
2022-12-08T11:38:21.706Z,3.400
2022-12-08T11:40:14.786Z,3.599
2022-12-08T11:41:16.448Z,3.200
2022-12-08T11:42:14.273Z,3.299
2022-12-08T11:43:13.907Z,3.5
2022-12-08T11:44:13.999Z,3.200
2022-12-08T11:45:14.397Z,2.900
2022-12-08T11:46:14.295Z,2.700
2022-12-08T11:47:14.490Z,2.900
2022-12-08T11:48:14.429Z,3.299
2022-12-08T11:50:18.270Z,3.400
2022-12-08T11:51:14.280Z,3.5
2022-12-08T11:52:14.001Z,3.299
2022-12-08T11:53:14.153Z,3.400
2022-12-08T11:56:13.918Z,3.599
2022-12-08T11:57:13.456Z,3.299
2022-12-08T11:58:14.097Z,3.599
2022-12-08T11:59:13.467Z,3.400
2022-12-08T12:00:15.410Z,3.5
2022-12-08T12:01:14.646Z,3.599
2022-12-08T12:02:14.416Z,3.400
2022-12-08T12:04:13.934Z,3.799
2022-12-08T12:05:13.251Z,3.700
2022-12-08T12:06:30.779Z,3.900
2022-12-08T12:07:13.166Z,3.700
2022-12-08T12:08:13.705Z,3.5
2022-12-08T12:09:18.412Z,3.900
2022-12-08T12:10:13.987Z,3.700
2022-12-08T12:11:19.239Z,4
2022-12-08T12:12:14.482Z,3.799
2022-12-08T12:13:18.848Z,3.599
2022-12-08T12:14:13.021Z,3.799
2022-12-08T12:15:14.476Z,3.900
2022-12-08T12:17:19.028Z,3.400
2022-12-08T12:18:17.009Z,3.700
2022-12-08T12:19:13.938Z,3.900
2022-12-08T12:20:13.638Z,4.099
2022-12-08T12:21:14.732Z,3.5
2022-12-08T12:22:13.644Z,3.599
2022-12-08T12:24:13.537Z,3.400
2022-12-08T12:25:14.277Z,2.900
2022-12-08T12:26:14.172Z,3
2022-12-08T12:27:14.263Z,2.299
2022-12-08T12:28:13.539Z,2.400
2022-12-08T12:29:13.731Z,2.200
2022-12-08T12:30:14.189Z,1.899
2022-12-08T12:32:13.820Z,1.600
2022-12-08T12:33:13.190Z,1.799
2022-12-08T12:34:13.760Z,1.700
2022-12-08T12:35:13.493Z,2
2022-12-08T12:36:13.523Z,2.200
2022-12-08T12:37:13.858Z,2.700
2022-12-08T12:41:13.680Z,3
2022-12-08T12:43:13.392Z,3.400
2022-12-08T12:44:13.862Z,3.299
2022-12-08T12:45:32.638Z,3.200
2022-12-08T12:46:13.810Z,3.400
2022-12-08T12:47:13.788Z,3.700
2022-12-08T12:48:13.793Z,3.599
2022-12-08T12:50:13.159Z,3.700
2022-12-08T12:51:13.405Z,3.099
2022-12-08T12:52:13.332Z,3.5
2022-12-08T12:53:14.017Z,3.700
2022-12-08T12:54:13.416Z,3.099
2022-12-08T12:55:14.076Z,3.299
2022-12-08T12:56:13.830Z,3.099
2022-12-08T12:57:13.624Z,3.400
2022-12-08T12:58:13.240Z,3.299
2022-12-08T12:59:13.954Z,3.099
2022-12-08T13:01:14.069Z,3.299
2022-12-08T13:02:13.867Z,3.200
2022-12-08T13:03:14.534Z,3.299
2022-12-08T13:04:13.708Z,3.099
2022-12-08T13:05:14.032Z,2.799
2022-12-08T13:06:14.916Z,3.400
2022-12-08T13:07:13.505Z,3.200
2022-12-08T13:08:13.634Z,3.299
2022-12-08T13:09:14.167Z,3.099
2022-12-08T13:10:14.209Z,3
2022-12-08T13:11:13.397Z,2.700
2022-12-08T13:13:14.086Z,2.900
2022-12-08T13:17:13.706Z,2.799
2022-12-08T13:19:13.597Z,2.599
2022-12-08T13:20:14.558Z,2.900
2022-12-08T13:21:14.084Z,2.700
2022-12-08T13:22:14.160Z,2.599
2022-12-08T13:23:13.912Z,2.799
2022-12-08T13:24:13.739Z,3
2022-12-08T13:25:13.893Z,2.900
2022-12-08T13:26:13.397Z,2.799
2022-12-08T13:28:14.220Z,2.5
2022-12-08T13:30:13.550Z,2.599
2022-12-08T13:31:14.047Z,2.799
2022-12-08T13:32:13.136Z,3
2022-12-08T13:33:18.991Z,2.700
2022-12-08T13:34:13.444Z,2.900
2022-12-08T13:35:13.819Z,2.799
2022-12-08T13:37:14.664Z,2.400
2022-12-08T13:38:14.018Z,2.700
2022-12-08T13:40:14.113Z,2.599
2022-12-08T13:41:14.508Z,3
2022-12-08T13:42:14.866Z,2.799
2022-12-08T13:43:13.712Z,3.200
2022-12-08T13:45:48.775Z,3.099
2022-12-08T13:47:33.339Z,3.099
2022-12-08T13:48:30.202Z,3.5
2022-12-08T13:51:10.525Z,2.799
2022-12-08T13:53:41.961Z,3
2022-12-08T13:54:42.866Z,2.700
2022-12-08T13:55:01.913Z,3.400
2022-12-08T13:57:14.285Z,4
2022-12-08T13:58:13.754Z,3.700
2022-12-08T13:59:13.833Z,3.900
2022-12-08T14:00:15.269Z,3.599
2022-12-08T14:01:14.050Z,3.299
2022-12-08T14:02:13.883Z,3.099
2022-12-08T14:03:13.355Z,3.200
2022-12-08T14:04:37.520Z,3.299
2022-12-08T14:05:19.384Z,3.099
2022-12-08T14:06:15.046Z,2.900
2022-12-08T14:07:14.086Z,2.799
2022-12-08T14:08:15.597Z,3.099
2022-12-08T14:09:13.609Z,3.599
2022-12-08T14:10:13.497Z,3
2022-12-08T14:11:13.395Z,2.799
2022-12-08T14:12:13.822Z,2.599
2022-12-08T14:14:14.523Z,2.5
2022-12-08T14:15:13.822Z,2.799
2022-12-08T14:16:12.984Z,2.599
2022-12-08T14:17:13.683Z,2.5
2022-12-08T14:18:13.305Z,3
2022-12-08T14:19:13.921Z,3.200
2022-12-08T14:21:21.416Z,3.099
2022-12-08T14:23:13.921Z,3.299
2022-12-08T14:24:13.433Z,3.5
2022-12-08T14:25:13.692Z,3.099
2022-12-08T14:26:13.602Z,2.900
2022-12-08T14:27:14.782Z,3
2022-12-08T14:28:12.835Z,2.900
2022-12-08T14:29:14.363Z,2.799
2022-12-08T14:30:14.275Z,2.700
2022-12-08T14:31:13.737Z,2.900
2022-12-08T14:32:13.206Z,3
2022-12-08T14:33:14.061Z,2.900
2022-12-08T14:34:13.988Z,3
2022-12-08T14:35:13.683Z,2.799
2022-12-08T14:36:14.469Z,2.599
2022-12-08T14:37:13.855Z,2.400
2022-12-08T14:38:18.802Z,2.799
2022-12-08T14:40:22.997Z,2.599
2022-12-08T14:41:14.001Z,2.900
2022-12-08T14:42:13.276Z,2.799
2022-12-08T14:43:13.328Z,3
2022-12-08T14:44:13.425Z,2.900
2022-12-08T14:45:14.520Z,3
2022-12-08T14:46:19.331Z,3.200
2022-12-08T14:47:14.338Z,2.900
2022-12-08T14:49:13.986Z,2.700
2022-12-08T14:50:13.646Z,2.900
2022-12-08T14:51:13.481Z,2.700
2022-12-08T14:52:21.636Z,2.900
2022-12-08T14:53:13.632Z,2.700
2022-12-08T14:55:13.604Z,3
2022-12-08T14:56:27.828Z,3.099
2022-12-08T14:57:15.561Z,2.900
2022-12-08T14:58:27.853Z,3
2022-12-08T14:59:13.279Z,2.700
2022-12-08T15:00:14.750Z,3.200
2022-12-08T15:01:13.191Z,3.099
2022-12-08T15:02:13.821Z,3.200
2022-12-08T15:04:27.922Z,3
2022-12-08T15:05:13.737Z,3.099
2022-12-08T15:06:13.324Z,3
2022-12-08T15:07:16.494Z,2.900
2022-12-08T15:08:28.481Z,2.599
2022-12-08T15:11:12.928Z,2.599
2022-12-08T15:12:13.582Z,2.900
2022-12-08T15:13:14.409Z,3.200
2022-12-08T15:14:13.739Z,2.599
2022-12-08T15:15:14.446Z,2.799
2022-12-08T15:16:33.112Z,3
2022-12-08T15:17:13.990Z,2.5
2022-12-08T15:19:16.270Z,2.400
2022-12-08T15:20:14.119Z,2.700
2022-12-08T15:21:13.823Z,2.799
2022-12-08T15:22:14.167Z,2.700
2022-12-08T15:23:13.395Z,2.799
2022-12-08T15:24:13.540Z,2.599
2022-12-08T15:26:14.019Z,2.900
2022-12-08T15:27:13.462Z,3.400
2022-12-08T15:28:13.850Z,3
2022-12-08T15:29:13.484Z,2.5
2022-12-08T15:31:13.870Z,2.200
2022-12-08T15:32:13.225Z,2.5
2022-12-08T15:33:13.977Z,2.299
2022-12-08T15:34:12.985Z,2.5
2022-12-08T15:36:12.759Z,2.599
2022-12-08T15:37:13.596Z,2.299
2022-12-08T15:39:13.340Z,2.200
2022-12-08T15:40:13.763Z,2.099
2022-12-08T15:41:15.144Z,1.899
2022-12-08T15:42:13.277Z,2.400
2022-12-08T15:43:12.936Z,2.200
2022-12-08T15:44:14.045Z,1.899
2022-12-08T15:45:13.823Z,2.099